Cranbourne Gardens, Victoria

5:03 AM AEDT on October 21, 2014 (GMT +1100)
IVICCRAN2 | Change Station
CLOSE
Current Station
Personal Weather Station
Location: Cranbourne, VIC
Elevation: 120 ft
Nearby Weather Stations

Elev 120 ft 38.10 °S, 145.29 °E | Updated 9 seconds ago

Clear
Clear
46.1 °F
Feels Like 46 °F
N
0.0
Wind Variable Wind from SE
Gusts 0.0 mph

Today
High -- | Low -- °F
--% Chance of Precip.
Yesterday
High -- | Low -- °F
Precip. -- in
6:25 AM 7:42 PM
Waning Crescent, 10% visible
Pressure 30.30 in
Visibility 6.2 miles
Clouds
Windchill 46 °F
Dew Point 44 °F
Humidity 94%
Rainfall 0.00 in
Snow Depth Not available.
UV Not available.
Pollen Not available.
Air Quality Not available.
Flu Activity Not available.
METAR YMEN 201800Z AUTO 34004KT 9999 // NCD 07/06 Q1026

More Conditions Fewer Conditions

Pressure 30.30 in
Visibility 6.2 miles
Clouds
Windchill 46 °F
Dew Point 44 °F
Humidity 94%
Rainfall 0.00 in
Snow Depth Not available.
UV Not available.
Pollen Not available.
Air Quality Not available.
Flu Activity Not available.
METAR YMEN 201800Z AUTO 34004KT 9999 // NCD 07/06 Q1026

More Conditions Fewer Conditions

10-Day Weather Forecast

Almanac

Astronomy

Oct. 21, 2014 Rise Set
Actual Time 6:25 AM AEDT 7:42 PM AEDT
Civil Twilight 5:58 AM AEDT 8:09 PM AEDT
Nautical Twilight 5:25 AM AEDT 8:42 PM AEDT
Astronomical Twilight 4:51 AM AEDT 9:16 PM AEDT
Moon 4:50 AM AEDT (10/21) 5:10 PM AEDT (10/21)
Length of Visible Light 14h 11m
Length of Day
13h 16m
Tomorrow will be 2m 22s longer.
Waning Crescent, 10% of the Moon is Illuminated
Oct 20
Waning Crescent
Oct 23
New
Oct 30
First Quarter
Nov 6
Full
Nov 14
Last Quarter

Yesterday's Extremes

Country Highs Country Lows

Community

WunderPhotos

Upload Photos

1,763,455 photos uploaded!

Nearby

Snow Depth

Not available.

Earthquake Activity

City Distance Mag. Time & Date
No recent earthquake activity has been reported nearby.
Minimum magnitude displayed is 2.5.

Coastal Water Temperatures

Place Temperature
No Stations Reporting

Nearby Weather Stations